createdAt,value
2019-06-27T00:01:12.396Z,63586.17
2019-06-27T00:03:38.663Z,63581.78
2019-06-27T00:06:04.889Z,63579.39
2019-06-27T00:08:31.150Z,63582.47
2019-06-27T00:10:57.410Z,63588.84
2019-06-27T00:13:23.632Z,63587.07
2019-06-27T00:15:49.903Z,63580.14
2019-06-27T00:18:16.137Z,63579.94
2019-06-27T00:20:42.426Z,63575.34
2019-06-27T00:23:08.650Z,63578.83
2019-06-27T00:25:34.774Z,63573.13
2019-06-27T00:28:01.019Z,63568.62
2019-06-27T00:30:27.319Z,63560.94
2019-06-27T00:32:53.570Z,63555.79
2019-06-27T00:35:19.811Z,63564.57
2019-06-27T00:37:46.066Z,63562.04
2019-06-27T00:40:12.896Z,63558.87
2019-06-27T00:42:39.172Z,63553.60
2019-06-27T00:45:05.795Z,63549.97
2019-06-27T00:47:31.973Z,63547.57
2019-06-27T00:49:58.240Z,63539.34
2019-06-27T00:52:24.514Z,63542.08
2019-06-27T00:54:50.855Z,63535.85
2019-06-27T00:57:17.203Z,63530.56
2019-06-27T00:59:43.461Z,63528.58
2019-06-27T01:02:09.705Z,63522.47
2019-06-27T01:04:35.974Z,63519.59
2019-06-27T01:07:02.115Z,63527.71
2019-06-27T01:09:28.383Z,63519.73
2019-06-27T01:11:54.615Z,63523.66
2019-06-27T01:14:20.868Z,63519.59
2019-06-27T01:16:47.119Z,63519.06
2019-06-27T01:19:13.370Z,63519.82
2019-06-27T01:21:39.719Z,63508.42
2019-06-27T01:24:05.969Z,63500.97
2019-06-27T01:26:32.220Z,63492.19
2019-06-27T01:28:58.471Z,63489.11
2019-06-27T01:31:24.717Z,63477.94
2019-06-27T01:33:50.969Z,63475.20
2019-06-27T01:36:17.229Z,63476.51
2019-06-27T01:38:43.485Z,63480.99
2019-06-27T01:41:09.773Z,63475.75
2019-06-27T01:43:36.008Z,63473.98
2019-06-27T01:46:02.766Z,63459.77
2019-06-27T01:48:29.023Z,63466.31
2019-06-27T01:50:55.165Z,63467.09
2019-06-27T01:53:21.442Z,63475.09
2019-06-27T01:55:47.603Z,63473.78
2019-06-27T01:58:13.841Z,63478.37
2019-06-27T02:00:40.195Z,63477.82
2019-06-27T02:03:06.437Z,63482.65
2019-06-27T02:05:32.596Z,63483.75
2019-06-27T02:07:58.832Z,63495.48
2019-06-27T02:10:25.077Z,63500.42
2019-06-27T02:12:51.223Z,63505.13
2019-06-27T02:15:21.821Z,63509.94
2019-06-27T02:17:46.527Z,63509.18
2019-06-27T02:20:14.771Z,63512.46
2019-06-27T02:22:41.017Z,63519.94
2019-06-27T02:25:07.575Z,63527.50
2019-06-27T02:27:33.817Z,63533.32
2019-06-27T02:30:00.081Z,63541.66
2019-06-27T02:32:26.313Z,63552.29
2019-06-27T02:34:52.549Z,63565.45
2019-06-27T02:37:18.808Z,63582.56
2019-06-27T02:39:44.948Z,63579.29
2019-06-27T02:42:11.252Z,63595.30
2019-06-27T02:44:37.473Z,63610.01
2019-06-27T02:47:03.724Z,63616.84
2019-06-27T02:49:29.980Z,63625.29
2019-06-27T02:51:56.222Z,63636.91
2019-06-27T02:54:22.475Z,63637.90
2019-06-27T02:56:48.729Z,63642.64
2019-06-27T02:59:14.884Z,63649.32
2019-06-27T03:01:41.152Z,63651.30
2019-06-27T03:04:07.381Z,63656.57
2019-06-27T03:06:33.619Z,63658.22
2019-06-27T03:08:59.867Z,63659.54
2019-06-27T03:11:26.101Z,63663.48
2019-06-27T03:13:52.339Z,63655.05
2019-06-27T03:16:18.593Z,63660.96
2019-06-27T03:18:44.836Z,63664.67
2019-06-27T03:21:10.983Z,63664.46
2019-06-27T03:23:37.233Z,63666.45
2019-06-27T03:26:03.472Z,63670.84
2019-06-27T03:28:49.967Z,63681.04
2019-06-27T03:30:57.794Z,63685.32
2019-06-27T03:33:24.034Z,63692.46
2019-06-27T03:35:50.277Z,63701.82
2019-06-27T03:38:16.539Z,63705.98
2019-06-27T03:40:42.679Z,63714.11
2019-06-27T03:43:08.931Z,63718.40
2019-06-27T03:45:35.212Z,63722.24
2019-06-27T03:48:01.505Z,63735.86
2019-06-27T03:50:27.754Z,63756.41
2019-06-27T03:52:53.906Z,63761.61
2019-06-27T03:55:20.208Z,63765.56
2019-06-27T03:57:46.368Z,63765.90
2019-06-27T04:00:16.318Z,63772.70
2019-06-27T04:02:42.513Z,63778.53
2019-06-27T04:05:08.781Z,63790.18
2019-06-27T04:07:34.989Z,63790.19
2019-06-27T04:10:01.270Z,63791.28
2019-06-27T04:12:27.515Z,63784.59
2019-06-27T04:14:53.652Z,63793.05
2019-06-27T04:17:19.926Z,63791.95
2019-06-27T04:19:46.164Z,63792.15
2019-06-27T04:22:17.118Z,63794.37
2019-06-27T04:24:40.582Z,63785.02
2019-06-27T04:27:06.818Z,63790.18
2019-06-27T04:29:34.629Z,63780.74
2019-06-27T04:32:01.123Z,63794.69
2019-06-27T04:34:27.365Z,63799.41
2019-06-27T04:36:53.606Z,63809.64
2019-06-27T04:39:19.866Z,63831.95
2019-06-27T04:41:46.123Z,63854.19
2019-06-27T04:44:12.356Z,63875.19
2019-06-27T04:46:38.648Z,63884.55
2019-06-27T04:49:04.914Z,63902.48
2019-06-27T04:51:31.157Z,63928.37
2019-06-27T04:53:57.402Z,63948.96
2019-06-27T04:56:23.770Z,63971.30
2019-06-27T04:58:50.044Z,63997.53
2019-06-27T05:01:16.295Z,64037.18
2019-06-27T05:03:42.525Z,64069.93
2019-06-27T05:06:08.765Z,64091.52
2019-06-27T05:08:34.951Z,64099.25
2019-06-27T05:11:01.112Z,64088.67
2019-06-27T05:13:27.341Z,64098.24
2019-06-27T05:15:53.514Z,64102.77
2019-06-27T05:18:19.864Z,64134.63
2019-06-27T05:20:46.114Z,64168.27
2019-06-27T05:23:12.345Z,64207.25
2019-06-27T05:25:38.593Z,64184.20
2019-06-27T05:28:04.733Z,64191.58
2019-06-27T05:30:30.983Z,64208.57
2019-06-27T05:32:57.222Z,64240.02
2019-06-27T05:35:23.472Z,64305.84
2019-06-27T05:37:49.719Z,64305.84
2019-06-27T05:40:15.975Z,64386.39
2019-06-27T05:42:42.120Z,64386.39
2019-06-27T05:45:08.458Z,64360.20
2019-06-27T05:47:34.725Z,64328.27
2019-06-27T05:50:00.973Z,64323.09
2019-06-27T05:52:27.140Z,64388.28
2019-06-27T05:54:53.402Z,64404.97
2019-06-27T05:57:19.638Z,64472.33
2019-06-27T05:59:45.895Z,64516.58
2019-06-27T06:02:12.113Z,64581.34
2019-06-27T06:04:38.368Z,64587.98
2019-06-27T06:07:04.593Z,64534.41
2019-06-27T06:09:32.951Z,64549.23
2019-06-27T06:11:58.993Z,64568.15
2019-06-27T06:14:25.239Z,64606.59
2019-06-27T06:16:51.489Z,64598.82
2019-06-27T06:19:17.816Z,64617.91
2019-06-27T06:21:44.056Z,64601.92
2019-06-27T06:24:10.289Z,64595.08
2019-06-27T06:26:36.576Z,64654.68
2019-06-27T06:29:02.952Z,64652.57
2019-06-27T06:31:29.188Z,64668.62
2019-06-27T06:33:55.309Z,64682.46
2019-06-27T06:36:21.748Z,64708.53
2019-06-27T06:38:47.992Z,64671.39
2019-06-27T06:41:14.162Z,64695.00
2019-06-27T06:43:40.288Z,64693.55
2019-06-27T06:46:06.718Z,64659.11
2019-06-27T06:48:33.005Z,64628.43
2019-06-27T06:50:59.337Z,64627.63
2019-06-27T06:53:25.580Z,64600.95
2019-06-27T06:55:51.807Z,64505.18
2019-06-27T06:58:18.054Z,64508.52
2019-06-27T07:00:57.054Z,64461.93
2019-06-27T07:03:12.421Z,64530.43
2019-06-27T07:05:38.648Z,64553.66
2019-06-27T07:08:04.791Z,64634.41
2019-06-27T07:10:30.913Z,64640.83
2019-06-27T07:12:57.046Z,64587.09
2019-06-27T07:15:23.205Z,64531.21
2019-06-27T07:17:49.343Z,64487.48
2019-06-27T07:20:15.899Z,64457.84
2019-06-27T07:22:42.130Z,64412.39
2019-06-27T07:25:08.471Z,64390.58
2019-06-27T07:27:34.589Z,64400.42
2019-06-27T07:30:00.828Z,64400.66
2019-06-27T07:32:27.052Z,64397.66
2019-06-27T07:34:53.217Z,64381.09
2019-06-27T07:37:19.346Z,64389.60
2019-06-27T07:39:45.588Z,64370.91
2019-06-27T07:42:11.856Z,64329.38
2019-06-27T07:44:38.077Z,64315.35
2019-06-27T07:47:04.325Z,64350.14
2019-06-27T07:49:33.193Z,64476.73
2019-06-27T07:51:58.731Z,64462.60
2019-06-27T07:54:24.971Z,64436.49
2019-06-27T07:56:51.219Z,64431.41
2019-06-27T07:59:17.454Z,64473.98
2019-06-27T08:01:43.724Z,64453.18
2019-06-27T08:04:09.985Z,64431.41
2019-06-27T08:06:36.229Z,64410.96
2019-06-27T08:09:02.575Z,64445.44
2019-06-27T08:11:28.798Z,64588.66
2019-06-27T08:13:54.953Z,64709.30
2019-06-27T08:16:21.188Z,64739.58
2019-06-27T08:18:47.437Z,64721.61
2019-06-27T08:21:13.679Z,64738.12
2019-06-27T08:23:41.892Z,64727.28
2019-06-27T08:26:07.956Z,64709.55
2019-06-27T08:28:34.241Z,64581.11
2019-06-27T08:31:00.472Z,64537.07
2019-06-27T08:33:26.713Z,64519.58
2019-06-27T08:35:52.943Z,64506.73
2019-06-27T08:38:19.175Z,64526.66
2019-06-27T08:40:45.422Z,64535.74
2019-06-27T08:43:11.642Z,64543.80
2019-06-27T08:45:37.925Z,64522.79
2019-06-27T08:48:04.149Z,64470.45
2019-06-27T08:50:30.386Z,64464.24
2019-06-27T08:52:56.633Z,64454.30
2019-06-27T08:55:22.772Z,64461.27
2019-06-27T08:57:48.907Z,64500.53
2019-06-27T09:00:15.836Z,64531.64
2019-06-27T09:02:41.990Z,64531.86
2019-06-27T09:05:09.218Z,64536.61
2019-06-27T09:07:35.463Z,64537.94
2019-06-27T09:10:02.686Z,64521.01
2019-06-27T09:12:28.929Z,64497.53
2019-06-27T09:14:55.192Z,64478.85
2019-06-27T09:17:21.426Z,64481.50
2019-06-27T09:19:47.568Z,64483.05
2019-06-27T09:22:13.804Z,64479.28
2019-06-27T09:24:40.086Z,64464.68
2019-06-27T09:27:06.319Z,64481.27
2019-06-27T09:29:32.558Z,64514.48
2019-06-27T09:31:58.788Z,64516.15
2019-06-27T09:34:24.924Z,64535.84
2019-06-27T09:36:51.162Z,64541.26
2019-06-27T09:39:17.395Z,64574.81
2019-06-27T09:41:43.533Z,64628.96
2019-06-27T09:44:10.902Z,64676.06
2019-06-27T09:46:37.172Z,64697.67
2019-06-27T09:49:03.419Z,64701.89
2019-06-27T09:51:29.554Z,64665.30
2019-06-27T09:53:55.819Z,64708.31
2019-06-27T09:56:22.125Z,64735.36
2019-06-27T09:58:48.372Z,64734.58
2019-06-27T10:01:14.628Z,64712.41
2019-06-27T10:03:40.864Z,64719.61
2019-06-27T10:06:07.096Z,64686.59
2019-06-27T10:08:33.327Z,64687.92
2019-06-27T10:10:59.455Z,64656.11
2019-06-27T10:13:25.724Z,64643.26
2019-06-27T10:15:51.957Z,64610.57
2019-06-27T10:18:18.715Z,64604.95
2019-06-27T10:20:44.956Z,64624.75
2019-06-27T10:23:11.185Z,64638.49
2019-06-27T10:25:38.376Z,64682.25
2019-06-27T10:28:04.583Z,64706.76
2019-06-27T10:30:30.736Z,64705.67
2019-06-27T10:32:59.792Z,64671.07
2019-06-27T10:35:25.108Z,64730.14
2019-06-27T10:37:51.228Z,64750.01
2019-06-27T10:40:18.363Z,64767.19
2019-06-27T10:42:44.613Z,64729.82
2019-06-27T10:45:10.843Z,64719.39
2019-06-27T10:47:36.983Z,64685.57
2019-06-27T10:50:04.640Z,64694.00
2019-06-27T10:52:30.945Z,64711.20
2019-06-27T10:54:57.246Z,64669.73
2019-06-27T10:57:23.484Z,64657.54
2019-06-27T10:59:49.710Z,64642.37
2019-06-27T11:02:15.847Z,64631.51
2019-06-27T11:04:42.091Z,64616.34
2019-06-27T11:07:08.342Z,64679.92
2019-06-27T11:09:37.491Z,64763.40
2019-06-27T11:12:03.723Z,64773.93
2019-06-27T11:14:29.969Z,64824.97
2019-06-27T11:16:56.106Z,64790.14
2019-06-27T11:19:22.364Z,64769.18
2019-06-27T11:21:48.580Z,64810.24
2019-06-27T11:24:15.057Z,64813.57
2019-06-27T11:26:41.310Z,64818.66
2019-06-27T11:29:07.595Z,64761.97
2019-06-27T11:31:33.750Z,64758.74
2019-06-27T11:33:59.972Z,64680.81
2019-06-27T11:36:26.204Z,64662.20
2019-06-27T11:38:52.435Z,64629.86
2019-06-27T11:41:18.707Z,64627.63
2019-06-27T11:43:45.087Z,64637.83
2019-06-27T11:46:11.346Z,64637.83
2019-06-27T11:48:37.573Z,64617.67
2019-06-27T11:51:03.821Z,64614.69
2019-06-27T11:53:30.048Z,64615.46
2019-06-27T11:55:56.170Z,64657.54
2019-06-27T11:58:22.429Z,64745.67
2019-06-27T12:00:48.651Z,64790.14
2019-06-27T12:03:14.899Z,64777.50
2019-06-27T12:05:41.145Z,64747.10
2019-06-27T12:08:10.827Z,64779.15
2019-06-27T12:10:35.418Z,64791.38
2019-06-27T12:13:01.590Z,64773.84
2019-06-27T12:15:27.789Z,64808.13
2019-06-27T12:17:54.031Z,64875.14
2019-06-27T12:20:20.284Z,64875.05
2019-06-27T12:22:46.507Z,64782.82
2019-06-27T12:25:12.759Z,64729.05
2019-06-27T12:27:38.903Z,64756.10
2019-06-27T12:30:05.976Z,64796.79
2019-06-27T12:32:32.200Z,64830.53
2019-06-27T12:34:58.456Z,64864.91
2019-06-27T12:37:24.702Z,64809.12
2019-06-27T12:39:50.847Z,64784.15
2019-06-27T12:42:31.524Z,64717.84
2019-06-27T12:44:45.211Z,64682.25
2019-06-27T12:47:11.450Z,64647.79
2019-06-27T12:49:56.937Z,64726.50
2019-06-27T12:52:05.631Z,64815.46
2019-06-27T12:54:31.763Z,64792.35
2019-06-27T12:56:58.005Z,64778.71
2019-06-27T12:59:24.138Z,64749.35
2019-06-27T13:01:50.419Z,64686.59
2019-06-27T13:04:23.358Z,64673.52
2019-06-27T13:06:44.672Z,64714.64
2019-06-27T13:09:10.907Z,64765.30
2019-06-27T13:11:37.154Z,64800.58
2019-06-27T13:14:03.420Z,64760.86
2019-06-27T13:16:31.160Z,64710.98
2019-06-27T13:18:57.710Z,64742.56
2019-06-27T13:21:23.950Z,64797.35
2019-06-27T13:23:50.199Z,64798.13
2019-06-27T13:26:16.419Z,64844.95
2019-06-27T13:28:42.731Z,64864.91
2019-06-27T13:31:08.951Z,64876.70
2019-06-27T13:33:35.191Z,64883.16
2019-06-27T13:36:01.430Z,64827.52
2019-06-27T13:38:27.658Z,64869.04
2019-06-27T13:40:53.889Z,64902.25
2019-06-27T13:43:20.131Z,64946.85
2019-06-27T13:45:46.357Z,64947.54
2019-06-27T13:48:12.626Z,64928.21
2019-06-27T13:50:38.852Z,64941.66
2019-06-27T13:53:05.116Z,64938.20
2019-06-27T13:55:31.361Z,64888.93
2019-06-27T13:57:57.991Z,64862.05
2019-06-27T14:00:30.617Z,64847.50
2019-06-27T14:02:56.865Z,64794.05
2019-06-27T14:05:23.096Z,64800.12
2019-06-27T14:07:49.345Z,64852.61
2019-06-27T14:10:15.695Z,64855.40
2019-06-27T14:12:44.767Z,64843.74
2019-06-27T14:15:10.885Z,64802.79
2019-06-27T14:17:37.102Z,64772.84
2019-06-27T14:20:07.752Z,64767.63
2019-06-27T14:22:34.305Z,64793.49
2019-06-27T14:25:00.625Z,64736.91
2019-06-27T14:27:26.863Z,64698.34
2019-06-27T14:29:56.446Z,64670.31
2019-06-27T14:32:21.162Z,64668.86
2019-06-27T14:34:47.415Z,64677.71
2019-06-27T14:37:13.641Z,64675.70
2019-06-27T14:39:39.814Z,64694.66
2019-06-27T14:42:06.025Z,64701.23
2019-06-27T14:44:32.252Z,64717.84
2019-06-27T14:46:58.497Z,64732.25
2019-06-27T14:49:24.750Z,64732.47
2019-06-27T14:51:50.991Z,64737.35
2019-06-27T14:54:17.241Z,64713.75
2019-06-27T14:56:43.488Z,64689.45
2019-06-27T14:59:14.015Z,64689.35
2019-06-27T15:01:37.963Z,64653.90
2019-06-27T15:04:04.093Z,64638.27
2019-06-27T15:06:30.314Z,64619.89
2019-06-27T15:08:56.932Z,64606.28
2019-06-27T15:11:23.149Z,64587.21
2019-06-27T15:13:49.287Z,64559.30
2019-06-27T15:16:15.409Z,64554.99
2019-06-27T15:18:41.678Z,64542.26
2019-06-27T15:21:07.924Z,64545.35
2019-06-27T15:23:34.113Z,64538.71
2019-06-27T15:26:00.361Z,64534.18
2019-06-27T15:28:26.626Z,64527.33
2019-06-27T15:30:52.892Z,64512.38
2019-06-27T15:33:19.113Z,64525.44
2019-06-27T15:35:52.359Z,64527.53
2019-06-27T15:38:13.484Z,64532.08
2019-06-27T15:40:41.026Z,64538.84
2019-06-27T15:43:07.162Z,64540.17
2019-06-27T15:45:33.578Z,64536.51
2019-06-27T15:47:59.772Z,64524.00
2019-06-27T15:50:26.062Z,64524.67
2019-06-27T15:52:52.369Z,64518.25
2019-06-27T15:55:18.600Z,64512.39
2019-06-27T15:57:44.736Z,64505.64
2019-06-27T16:00:11.269Z,64505.86
2019-06-27T16:02:37.511Z,64504.07
2019-06-27T16:05:05.421Z,64506.63
2019-06-27T16:07:31.646Z,64507.07
2019-06-27T16:09:57.880Z,64505.30
2019-06-27T16:12:24.113Z,64502.52
2019-06-27T16:14:50.240Z,64497.53
2019-06-27T16:17:16.485Z,64494.00
2019-06-27T16:19:42.733Z,64494.67
2019-06-27T16:22:08.997Z,64497.21
2019-06-27T16:24:35.247Z,64482.94
2019-06-27T16:27:01.392Z,64478.72
2019-06-27T16:29:27.666Z,64465.56
2019-06-27T16:31:53.898Z,64464.35
2019-06-27T16:34:20.950Z,64449.30
2019-06-27T16:36:47.187Z,64452.62
2019-06-27T16:39:13.449Z,64447.55
2019-06-27T16:41:39.739Z,64441.02
2019-06-27T16:44:05.990Z,64438.81
2019-06-27T16:46:32.235Z,64426.53
2019-06-27T16:48:58.506Z,64427.32
2019-06-27T16:51:24.737Z,64430.19
2019-06-27T16:53:50.892Z,64417.35
2019-06-27T16:56:17.134Z,64410.07
2019-06-27T16:58:43.369Z,64408.74
2019-06-27T17:01:09.623Z,64403.63
2019-06-27T17:03:35.890Z,64397.66
2019-06-27T17:06:02.154Z,64387.27
2019-06-27T17:08:28.397Z,64377.54
2019-06-27T17:10:54.667Z,64365.83
2019-06-27T17:13:20.905Z,64350.14
2019-06-27T17:15:47.186Z,64342.08
2019-06-27T17:18:13.683Z,64345.29
2019-06-27T17:20:39.854Z,64346.83
2019-06-27T17:23:06.182Z,64342.96
2019-06-27T17:25:32.475Z,64338.87
2019-06-27T17:27:58.728Z,64320.75
2019-06-27T17:30:24.993Z,64320.99
2019-06-27T17:32:51.435Z,64317.89
2019-06-27T17:35:20.293Z,64315.67
2019-06-27T17:37:46.467Z,64316.46
2019-06-27T17:40:12.889Z,64311.27
2019-06-27T17:42:39.153Z,64300.78
2019-06-27T17:45:05.897Z,64291.81
2019-06-27T17:47:32.153Z,64283.63
2019-06-27T17:49:58.399Z,64281.43
2019-06-27T17:52:24.676Z,64278.99
2019-06-27T17:54:50.915Z,64262.44
2019-06-27T17:57:17.208Z,64253.15
2019-06-27T17:59:43.467Z,64246.10
2019-06-27T18:02:09.697Z,64249.18
2019-06-27T18:04:35.863Z,64240.25
2019-06-27T18:07:13.538Z,64240.25
2019-06-27T18:09:30.088Z,64228.21
2019-06-27T18:11:56.233Z,64226.67
2019-06-27T18:14:22.570Z,64221.59
2019-06-27T18:16:48.724Z,64221.59
2019-06-27T18:19:14.961Z,64213.31
2019-06-27T18:21:41.226Z,64211.43
2019-06-27T18:24:07.457Z,64211.43
2019-06-27T18:26:33.681Z,64217.06
2019-06-27T18:28:59.936Z,64215.08
2019-06-27T18:31:26.161Z,64209.23
2019-06-27T18:33:52.290Z,64198.96
2019-06-27T18:36:18.417Z,64182.42
2019-06-27T18:38:44.564Z,64174.36
2019-06-27T18:41:12.910Z,64168.83
2019-06-27T18:43:38.994Z,64159.89
2019-06-27T18:46:05.270Z,64163.54
2019-06-27T18:48:31.512Z,64146.87
2019-06-27T18:50:57.743Z,64135.52
2019-06-27T18:53:23.992Z,64144.57
2019-06-27T18:55:50.228Z,64144.57
2019-06-27T18:58:16.466Z,64131.21
2019-06-27T19:00:42.714Z,64123.28
2019-06-27T19:03:08.944Z,64114.90
2019-06-27T19:05:35.191Z,64114.58
2019-06-27T19:08:01.453Z,64107.73
2019-06-27T19:10:27.695Z,64100.46
2019-06-27T19:12:53.922Z,64105.41
2019-06-27T19:15:20.164Z,64108.61
2019-06-27T19:17:46.397Z,64092.85
2019-06-27T19:20:14.660Z,64090.76
2019-06-27T19:22:54.620Z,64072.79
2019-06-27T19:25:22.679Z,64053.17
2019-06-27T19:27:48.899Z,64044.77
2019-06-27T19:30:15.204Z,64033.98
2019-06-27T19:32:41.480Z,64033.99
2019-06-27T19:35:07.977Z,64033.64
2019-06-27T19:37:34.223Z,64020.86
2019-06-27T19:40:00.340Z,64016.47
2019-06-27T19:42:26.582Z,64005.45
2019-06-27T19:44:52.711Z,64006.54
2019-06-27T19:47:18.939Z,63998.85
2019-06-27T19:49:45.065Z,63978.46
2019-06-27T19:52:11.303Z,63970.98
2019-06-27T19:54:37.537Z,63946.09
2019-06-27T19:57:03.800Z,63946.87
2019-06-27T19:59:29.932Z,63960.95
2019-06-27T20:01:57.010Z,63944.66
2019-06-27T20:04:23.272Z,63929.80
2019-06-27T20:06:49.504Z,63905.36
2019-06-27T20:09:15.748Z,63890.39
2019-06-27T20:11:41.983Z,63873.87
2019-06-27T20:14:08.244Z,63857.70
2019-06-27T20:16:34.519Z,63855.61
2019-06-27T20:19:00.639Z,63852.21
2019-06-27T20:21:26.884Z,63823.37
2019-06-27T20:23:53.143Z,63852.86
2019-06-27T20:26:19.258Z,63843.84
2019-06-27T20:28:45.543Z,63836.60
2019-06-27T20:31:11.686Z,63838.33
2019-06-27T20:33:37.911Z,63829.11
2019-06-27T20:36:04.059Z,63819.66
2019-06-27T20:38:34.820Z,63798.44
2019-06-27T20:40:58.335Z,63787.34
2019-06-27T20:43:24.565Z,63778.53
2019-06-27T20:45:50.750Z,63771.73
2019-06-27T20:48:17.047Z,63766.32
2019-06-27T20:50:43.289Z,63751.59
2019-06-27T20:53:09.521Z,63742.79
2019-06-27T20:55:35.749Z,63737.73
2019-06-27T20:58:01.997Z,63727.20
2019-06-27T21:00:28.360Z,63720.70
2019-06-27T21:02:54.612Z,63706.21
2019-06-27T21:05:20.765Z,63690.62
2019-06-27T21:07:47.029Z,63680.51
2019-06-27T21:10:13.662Z,63671.72
2019-06-27T21:12:39.925Z,63663.04
2019-06-27T21:15:06.942Z,63653.28
2019-06-27T21:17:33.242Z,63645.47
2019-06-27T21:19:59.473Z,63635.92
2019-06-27T21:22:25.918Z,63630.86
2019-06-27T21:24:52.164Z,63619.12
2019-06-27T21:27:18.495Z,63611.11
2019-06-27T21:29:44.760Z,63591.60
2019-06-27T21:32:10.917Z,63583.23
2019-06-27T21:34:37.165Z,63574.44
2019-06-27T21:37:03.391Z,63568.41
2019-06-27T21:39:29.643Z,63565.79
2019-06-27T21:41:55.877Z,63559.63
2019-06-27T21:44:22.113Z,63556.25
2019-06-27T21:46:48.408Z,63546.17
2019-06-27T21:49:14.645Z,63540.13
2019-06-27T21:51:40.788Z,63535.07
2019-06-27T21:54:07.032Z,63529.48
2019-06-27T21:56:33.344Z,63519.18
2019-06-27T21:58:59.570Z,63510.74
2019-06-27T22:01:25.813Z,63510.83
2019-06-27T22:03:52.104Z,63501.84
2019-06-27T22:06:18.213Z,63493.50
2019-06-27T22:08:44.476Z,63483.29
2019-06-27T22:11:10.608Z,63476.72
2019-06-27T22:13:36.751Z,63468.08
2019-06-27T22:16:02.996Z,63457.79
2019-06-27T22:18:29.237Z,63450.75
2019-06-27T22:20:55.477Z,63437.61
2019-06-27T22:23:21.749Z,63426.98
2019-06-27T22:25:48.773Z,63422.27
2019-06-27T22:28:15.020Z,63410.67
2019-06-27T22:30:41.202Z,63406.92
2019-06-27T22:33:07.530Z,63400.35
2019-06-27T22:35:33.810Z,63392.68
2019-06-27T22:38:18.395Z,63383.48
2019-06-27T22:41:02.789Z,63379.94
2019-06-27T22:43:47.454Z,63365.07
2019-06-27T22:46:32.156Z,63352.28
2019-06-27T22:48:59.186Z,63342.96
2019-06-27T22:51:35.841Z,63332.91
2019-06-27T22:54:03.920Z,63329.71
2019-06-27T22:56:30.159Z,63317.99
2019-06-27T22:58:56.300Z,63308.14
2019-06-27T23:01:22.551Z,63294.04
2019-06-27T23:03:48.786Z,63289.77
2019-06-27T23:06:16.829Z,63279.49
2019-06-27T23:08:43.067Z,63269.77
2019-06-27T23:11:09.208Z,63268.75
2019-06-27T23:13:35.451Z,63260.02
2019-06-27T23:16:01.674Z,63252.68
2019-06-27T23:18:27.832Z,63248.18
2019-06-27T23:20:53.957Z,63241.07
2019-06-27T23:23:20.097Z,63231.70
2019-06-27T23:25:46.330Z,63225.67
2019-06-27T23:28:12.481Z,63217.69
2019-06-27T23:30:38.626Z,63207.86
2019-06-27T23:33:04.756Z,63198.14
2019-06-27T23:35:31.012Z,63198.55
2019-06-27T23:37:57.159Z,63205.74
2019-06-27T23:40:23.396Z,63197.47
2019-06-27T23:42:49.624Z,63201.93
2019-06-27T23:45:17.370Z,63195.27
2019-06-27T23:47:43.595Z,63190.37
2019-06-27T23:50:09.839Z,63188.72
2019-06-27T23:52:36.053Z,63188.05
2019-06-27T23:55:02.509Z,63182.49
2019-06-27T23:57:28.732Z,63184.14
2019-06-27T23:59:54.968Z,63178.89
